Port Clements, Canada
Current Conditions -  °F | °C
As of 5:00 AM on Friday 24 Oct 2014 (Local Time) from CYZP Reporting Station
Clear Clear  
Wind Chill:   Ceiling: Unl
Heat Index:   Visibility: 9mi
Dew Point:   Wind: 5mph
Humidity: 93%   Direction: 170°S
Pressure: 29.75"   Gusts: NA
Location:  53.68°N, 132.17°W
Report Text: CYZP 241200Z AUTO 17004KT 9SM CLR 06/05 A2975 RMK SLP073
Loading
Personal Weather Stations






























Interactive Weather Map
Tropical Storm Tracking
New forecast layout! Learn more

10-Day Weather Forecast

Advertisements
Track Severe Weather on mobile